sensor_id;sensor_type;location;lat;lon;timestamp;P1;durP1;ratioP1;P2;durP2;ratioP2
11064;SDS011;5585;52.530;7.320;2023-03-23T00:01:58;4.93;;;4.30;;
11064;SDS011;5585;52.530;7.320;2023-03-23T00:04:24;4.90;;;4.43;;
11064;SDS011;5585;52.530;7.320;2023-03-23T00:06:52;7.50;;;4.67;;
11064;SDS011;5585;52.530;7.320;2023-03-23T00:09:18;5.33;;;4.83;;
11064;SDS011;5585;52.530;7.320;2023-03-23T00:11:49;5.37;;;4.20;;
11064;SDS011;5585;52.530;7.320;2023-03-23T00:14:17;4.53;;;4.13;;
11064;SDS011;5585;52.530;7.320;2023-03-23T00:16:47;5.93;;;4.10;;
11064;SDS011;5585;52.530;7.320;2023-03-23T00:19:15;5.80;;;4.57;;
11064;SDS011;5585;52.530;7.320;2023-03-23T00:21:42;6.30;;;4.20;;
11064;SDS011;5585;52.530;7.320;2023-03-23T00:24:09;6.67;;;4.47;;
11064;SDS011;5585;52.530;7.320;2023-03-23T00:26:36;4.63;;;4.07;;
11064;SDS011;5585;52.530;7.320;2023-03-23T00:29:06;7.60;;;4.43;;
11064;SDS011;5585;52.530;7.320;2023-03-23T00:31:34;8.00;;;4.20;;
11064;SDS011;5585;52.530;7.320;2023-03-23T00:34:00;4.73;;;3.73;;
11064;SDS011;5585;52.530;7.320;2023-03-23T00:36:29;5.97;;;4.00;;
11064;SDS011;5585;52.530;7.320;2023-03-23T00:38:56;6.27;;;4.50;;
11064;SDS011;5585;52.530;7.320;2023-03-23T00:41:24;5.83;;;3.97;;
11064;SDS011;5585;52.530;7.320;2023-03-23T00:43:52;5.33;;;3.90;;
11064;SDS011;5585;52.530;7.320;2023-03-23T00:46:18;7.03;;;4.33;;
11064;SDS011;5585;52.530;7.320;2023-03-23T00:48:47;6.40;;;4.00;;
11064;SDS011;5585;52.530;7.320;2023-03-23T00:51:15;5.43;;;3.93;;
11064;SDS011;5585;52.530;7.320;2023-03-23T00:53:42;6.43;;;3.87;;
11064;SDS011;5585;52.530;7.320;2023-03-23T00:56:09;5.73;;;3.80;;
11064;SDS011;5585;52.530;7.320;2023-03-23T00:58:35;6.47;;;3.73;;
11064;SDS011;5585;52.530;7.320;2023-03-23T01:01:02;4.77;;;3.53;;
11064;SDS011;5585;52.530;7.320;2023-03-23T01:03:29;3.70;;;3.30;;
11064;SDS011;5585;52.530;7.320;2023-03-23T01:05:57;3.63;;;3.23;;
11064;SDS011;5585;52.530;7.320;2023-03-23T01:08:23;5.10;;;3.30;;
11064;SDS011;5585;52.530;7.320;2023-03-23T01:10:50;5.40;;;3.63;;
11064;SDS011;5585;52.530;7.320;2023-03-23T01:13:19;3.30;;;3.00;;
11064;SDS011;5585;52.530;7.320;2023-03-23T01:15:47;4.20;;;3.47;;
11064;SDS011;5585;52.530;7.320;2023-03-23T01:18:14;6.97;;;3.57;;
11064;SDS011;5585;52.530;7.320;2023-03-23T01:20:40;4.00;;;3.17;;
11064;SDS011;5585;52.530;7.320;2023-03-23T01:23:09;5.10;;;3.37;;
11064;SDS011;5585;52.530;7.320;2023-03-23T01:25:35;5.40;;;3.30;;
11064;SDS011;5585;52.530;7.320;2023-03-23T01:28:02;5.60;;;3.43;;
11064;SDS011;5585;52.530;7.320;2023-03-23T01:30:28;3.80;;;2.90;;
11064;SDS011;5585;52.530;7.320;2023-03-23T01:32:55;5.57;;;2.97;;
11064;SDS011;5585;52.530;7.320;2023-03-23T01:35:21;4.77;;;2.93;;
11064;SDS011;5585;52.530;7.320;2023-03-23T01:37:48;4.17;;;2.97;;
11064;SDS011;5585;52.530;7.320;2023-03-23T01:40:16;5.07;;;3.00;;
11064;SDS011;5585;52.530;7.320;2023-03-23T01:42:43;5.67;;;3.43;;
11064;SDS011;5585;52.530;7.320;2023-03-23T01:47:52;5.37;;;2.63;;
11064;SDS011;5585;52.530;7.320;2023-03-23T01:50:20;4.83;;;2.90;;
11064;SDS011;5585;52.530;7.320;2023-03-23T01:52:49;6.60;;;3.37;;
11064;SDS011;5585;52.530;7.320;2023-03-23T01:55:17;5.10;;;3.20;;
11064;SDS011;5585;52.530;7.320;2023-03-23T01:57:44;3.03;;;2.50;;
11064;SDS011;5585;52.530;7.320;2023-03-23T02:00:12;3.23;;;2.90;;
11064;SDS011;5585;52.530;7.320;2023-03-23T02:02:41;4.00;;;2.70;;
11064;SDS011;5585;52.530;7.320;2023-03-23T02:05:10;3.53;;;2.83;;
11064;SDS011;5585;52.530;7.320;2023-03-23T02:07:37;3.27;;;2.97;;
11064;SDS011;5585;52.530;7.320;2023-03-23T02:10:04;4.47;;;2.87;;
11064;SDS011;5585;52.530;7.320;2023-03-23T02:12:32;3.93;;;2.73;;
11064;SDS011;5585;52.530;7.320;2023-03-23T02:14:59;3.23;;;2.73;;
11064;SDS011;5585;52.530;7.320;2023-03-23T02:17:26;5.40;;;2.80;;
11064;SDS011;5585;52.530;7.320;2023-03-23T02:20:02;4.40;;;2.90;;
11064;SDS011;5585;52.530;7.320;2023-03-23T02:22:44;3.40;;;2.47;;
11064;SDS011;5585;52.530;7.320;2023-03-23T02:25:18;3.97;;;3.03;;
11064;SDS011;5585;52.530;7.320;2023-03-23T02:33:18;2.80;;;2.60;;
11064;SDS011;5585;52.530;7.320;2023-03-23T02:35:51;2.63;;;2.37;;
11064;SDS011;5585;52.530;7.320;2023-03-23T02:38:19;4.37;;;2.53;;
11064;SDS011;5585;52.530;7.320;2023-03-23T02:40:47;3.60;;;2.67;;
11064;SDS011;5585;52.530;7.320;2023-03-23T02:43:15;2.50;;;2.27;;
11064;SDS011;5585;52.530;7.320;2023-03-23T02:45:43;4.03;;;2.30;;
11064;SDS011;5585;52.530;7.320;2023-03-23T02:48:10;4.20;;;2.37;;
11064;SDS011;5585;52.530;7.320;2023-03-23T02:50:39;3.30;;;2.67;;
11064;SDS011;5585;52.530;7.320;2023-03-23T02:53:08;2.90;;;2.60;;
11064;SDS011;5585;52.530;7.320;2023-03-23T02:55:36;3.77;;;2.70;;
11064;SDS011;5585;52.530;7.320;2023-03-23T02:58:07;3.50;;;2.50;;
11064;SDS011;5585;52.530;7.320;2023-03-23T03:00:33;5.20;;;2.83;;
11064;SDS011;5585;52.530;7.320;2023-03-23T03:03:00;2.67;;;2.30;;
11064;SDS011;5585;52.530;7.320;2023-03-23T03:05:30;3.10;;;2.30;;
11064;SDS011;5585;52.530;7.320;2023-03-23T03:08:02;4.50;;;2.30;;
11064;SDS011;5585;52.530;7.320;2023-03-23T03:10:34;3.43;;;2.57;;
11064;SDS011;5585;52.530;7.320;2023-03-23T03:13:03;4.80;;;2.73;;
11064;SDS011;5585;52.530;7.320;2023-03-23T03:15:33;2.80;;;2.13;;
11064;SDS011;5585;52.530;7.320;2023-03-23T03:18:02;2.83;;;2.17;;
11064;SDS011;5585;52.530;7.320;2023-03-23T03:20:29;4.13;;;2.33;;
11064;SDS011;5585;52.530;7.320;2023-03-23T03:22:57;3.83;;;2.40;;
11064;SDS011;5585;52.530;7.320;2023-03-23T03:25:25;4.23;;;2.50;;
11064;SDS011;5585;52.530;7.320;2023-03-23T03:27:53;2.30;;;2.10;;
11064;SDS011;5585;52.530;7.320;2023-03-23T03:30:23;4.47;;;2.53;;
11064;SDS011;5585;52.530;7.320;2023-03-23T03:32:52;3.87;;;2.27;;
11064;SDS011;5585;52.530;7.320;2023-03-23T03:35:20;3.03;;;2.27;;
11064;SDS011;5585;52.530;7.320;2023-03-23T03:37:47;3.27;;;2.73;;
11064;SDS011;5585;52.530;7.320;2023-03-23T03:40:14;4.37;;;2.83;;
11064;SDS011;5585;52.530;7.320;2023-03-23T03:42:43;2.60;;;2.20;;
11064;SDS011;5585;52.530;7.320;2023-03-23T03:45:10;3.83;;;2.30;;
11064;SDS011;5585;52.530;7.320;2023-03-23T03:47:38;4.80;;;2.80;;
11064;SDS011;5585;52.530;7.320;2023-03-23T03:50:05;3.80;;;2.50;;
11064;SDS011;5585;52.530;7.320;2023-03-23T03:52:32;3.87;;;2.60;;
11064;SDS011;5585;52.530;7.320;2023-03-23T03:54:58;3.90;;;2.87;;
11064;SDS011;5585;52.530;7.320;2023-03-23T03:57:25;3.53;;;2.60;;
11064;SDS011;5585;52.530;7.320;2023-03-23T03:59:53;2.87;;;2.57;;
11064;SDS011;5585;52.530;7.320;2023-03-23T04:02:20;3.73;;;2.60;;
11064;SDS011;5585;52.530;7.320;2023-03-23T04:04:47;4.77;;;3.00;;
11064;SDS011;5585;52.530;7.320;2023-03-23T04:07:13;4.23;;;2.90;;
11064;SDS011;5585;52.530;7.320;2023-03-23T04:09:41;3.60;;;2.97;;
11064;SDS011;5585;52.530;7.320;2023-03-23T04:12:08;3.43;;;2.80;;
11064;SDS011;5585;52.530;7.320;2023-03-23T04:14:34;3.00;;;2.70;;
11064;SDS011;5585;52.530;7.320;2023-03-23T04:17:02;3.97;;;2.83;;
11064;SDS011;5585;52.530;7.320;2023-03-23T04:19:29;3.43;;;2.93;;
11064;SDS011;5585;52.530;7.320;2023-03-23T04:21:58;3.23;;;2.93;;
11064;SDS011;5585;52.530;7.320;2023-03-23T04:24:24;3.50;;;2.93;;
11064;SDS011;5585;52.530;7.320;2023-03-23T04:26:53;3.57;;;3.00;;
11064;SDS011;5585;52.530;7.320;2023-03-23T04:29:20;3.10;;;2.77;;
11064;SDS011;5585;52.530;7.320;2023-03-23T04:31:46;3.93;;;2.67;;
11064;SDS011;5585;52.530;7.320;2023-03-23T04:34:17;4.10;;;2.60;;
11064;SDS011;5585;52.530;7.320;2023-03-23T04:36:44;3.13;;;2.47;;
11064;SDS011;5585;52.530;7.320;2023-03-23T04:39:11;4.27;;;2.90;;
11064;SDS011;5585;52.530;7.320;2023-03-23T04:41:38;4.83;;;3.27;;
11064;SDS011;5585;52.530;7.320;2023-03-23T04:44:06;2.40;;;2.20;;
11064;SDS011;5585;52.530;7.320;2023-03-23T04:46:32;4.00;;;2.70;;
11064;SDS011;5585;52.530;7.320;2023-03-23T04:48:59;3.40;;;2.80;;
11064;SDS011;5585;52.530;7.320;2023-03-23T04:51:29;3.43;;;3.00;;
11064;SDS011;5585;52.530;7.320;2023-03-23T04:53:56;3.13;;;2.67;;
11064;SDS011;5585;52.530;7.320;2023-03-23T04:56:23;3.43;;;2.50;;
11064;SDS011;5585;52.530;7.320;2023-03-23T04:58:49;4.53;;;2.80;;
11064;SDS011;5585;52.530;7.320;2023-03-23T05:01:16;3.53;;;2.40;;
11064;SDS011;5585;52.530;7.320;2023-03-23T05:03:43;5.73;;;2.67;;
11064;SDS011;5585;52.530;7.320;2023-03-23T05:06:10;4.40;;;2.87;;
11064;SDS011;5585;52.530;7.320;2023-03-23T05:08:38;4.10;;;3.07;;
11064;SDS011;5585;52.530;7.320;2023-03-23T05:11:05;3.90;;;2.60;;
11064;SDS011;5585;52.530;7.320;2023-03-23T05:13:32;4.13;;;2.83;;
11064;SDS011;5585;52.530;7.320;2023-03-23T05:16:02;3.90;;;3.13;;
11064;SDS011;5585;52.530;7.320;2023-03-23T05:18:29;4.80;;;2.60;;
11064;SDS011;5585;52.530;7.320;2023-03-23T05:20:59;4.57;;;2.60;;
11064;SDS011;5585;52.530;7.320;2023-03-23T05:23:25;4.20;;;2.80;;
11064;SDS011;5585;52.530;7.320;2023-03-23T05:25:53;5.47;;;3.37;;
11064;SDS011;5585;52.530;7.320;2023-03-23T05:28:20;2.93;;;2.63;;
11064;SDS011;5585;52.530;7.320;2023-03-23T05:30:47;3.33;;;2.90;;
11064;SDS011;5585;52.530;7.320;2023-03-23T05:33:13;3.30;;;2.90;;
11064;SDS011;5585;52.530;7.320;2023-03-23T05:35:40;4.20;;;3.00;;
11064;SDS011;5585;52.530;7.320;2023-03-23T05:38:07;3.73;;;2.83;;
11064;SDS011;5585;52.530;7.320;2023-03-23T05:40:33;4.13;;;3.00;;
11064;SDS011;5585;52.530;7.320;2023-03-23T05:43:01;3.73;;;2.57;;
11064;SDS011;5585;52.530;7.320;2023-03-23T05:45:27;4.10;;;2.40;;
11064;SDS011;5585;52.530;7.320;2023-03-23T05:47:54;4.33;;;2.70;;
11064;SDS011;5585;52.530;7.320;2023-03-23T05:50:21;4.77;;;2.40;;
11064;SDS011;5585;52.530;7.320;2023-03-23T05:52:48;3.93;;;2.60;;
11064;SDS011;5585;52.530;7.320;2023-03-23T05:55:16;3.53;;;2.30;;
11064;SDS011;5585;52.530;7.320;2023-03-23T05:57:43;3.53;;;2.73;;
11064;SDS011;5585;52.530;7.320;2023-03-23T06:00:11;5.40;;;2.70;;
11064;SDS011;5585;52.530;7.320;2023-03-23T06:02:45;2.97;;;2.67;;
11064;SDS011;5585;52.530;7.320;2023-03-23T06:05:11;4.03;;;2.30;;
11064;SDS011;5585;52.530;7.320;2023-03-23T06:07:38;3.03;;;2.73;;
11064;SDS011;5585;52.530;7.320;2023-03-23T06:10:05;4.17;;;2.83;;
11064;SDS011;5585;52.530;7.320;2023-03-23T06:12:34;3.43;;;2.87;;
11064;SDS011;5585;52.530;7.320;2023-03-23T06:15:00;4.60;;;2.57;;
11064;SDS011;5585;52.530;7.320;2023-03-23T06:17:30;3.20;;;2.57;;
11064;SDS011;5585;52.530;7.320;2023-03-23T06:19:56;3.30;;;2.80;;
11064;SDS011;5585;52.530;7.320;2023-03-23T06:22:23;2.57;;;2.10;;
11064;SDS011;5585;52.530;7.320;2023-03-23T06:24:50;6.33;;;2.80;;
11064;SDS011;5585;52.530;7.320;2023-03-23T06:27:16;3.40;;;2.67;;
11064;SDS011;5585;52.530;7.320;2023-03-23T06:29:43;4.70;;;2.43;;
11064;SDS011;5585;52.530;7.320;2023-03-23T06:32:10;4.07;;;2.53;;
11064;SDS011;5585;52.530;7.320;2023-03-23T06:34:38;4.33;;;2.50;;
11064;SDS011;5585;52.530;7.320;2023-03-23T06:37:05;4.97;;;2.23;;
11064;SDS011;5585;52.530;7.320;2023-03-23T06:39:32;3.63;;;2.50;;
11064;SDS011;5585;52.530;7.320;2023-03-23T06:41:58;5.70;;;2.60;;
11064;SDS011;5585;52.530;7.320;2023-03-23T06:44:25;3.03;;;2.17;;
11064;SDS011;5585;52.530;7.320;2023-03-23T06:46:51;4.13;;;2.60;;
11064;SDS011;5585;52.530;7.320;2023-03-23T06:49:18;4.87;;;2.43;;
11064;SDS011;5585;52.530;7.320;2023-03-23T06:51:46;3.97;;;2.30;;
11064;SDS011;5585;52.530;7.320;2023-03-23T06:54:12;3.53;;;1.90;;
11064;SDS011;5585;52.530;7.320;2023-03-23T06:56:39;4.53;;;2.43;;
11064;SDS011;5585;52.530;7.320;2023-03-23T06:59:06;5.07;;;2.23;;
11064;SDS011;5585;52.530;7.320;2023-03-23T07:01:32;3.60;;;2.00;;
11064;SDS011;5585;52.530;7.320;2023-03-23T07:03:59;4.77;;;2.30;;
11064;SDS011;5585;52.530;7.320;2023-03-23T07:06:25;5.80;;;2.00;;
11064;SDS011;5585;52.530;7.320;2023-03-23T07:08:53;4.27;;;2.10;;
11064;SDS011;5585;52.530;7.320;2023-03-23T07:11:20;3.37;;;1.90;;
11064;SDS011;5585;52.530;7.320;2023-03-23T07:13:46;3.83;;;1.90;;
11064;SDS011;5585;52.530;7.320;2023-03-23T07:16:14;5.10;;;2.30;;
11064;SDS011;5585;52.530;7.320;2023-03-23T07:18:41;3.57;;;1.97;;
11064;SDS011;5585;52.530;7.320;2023-03-23T07:21:07;3.40;;;2.20;;
11064;SDS011;5585;52.530;7.320;2023-03-23T07:23:35;5.00;;;1.20;;
11064;SDS011;5585;52.530;7.320;2023-03-23T07:26:03;4.30;;;1.10;;
11064;SDS011;5585;52.530;7.320;2023-03-23T07:28:30;1.67;;;0.80;;
11064;SDS011;5585;52.530;7.320;2023-03-23T07:30:57;2.23;;;0.70;;
11064;SDS011;5585;52.530;7.320;2023-03-23T07:33:23;2.17;;;0.80;;
11064;SDS011;5585;52.530;7.320;2023-03-23T07:35:50;3.60;;;1.10;;
11064;SDS011;5585;52.530;7.320;2023-03-23T07:38:17;2.47;;;0.80;;
11064;SDS011;5585;52.530;7.320;2023-03-23T07:40:43;2.87;;;1.20;;
11064;SDS011;5585;52.530;7.320;2023-03-23T07:43:13;2.40;;;0.80;;
11064;SDS011;5585;52.530;7.320;2023-03-23T07:45:39;4.03;;;1.33;;
11064;SDS011;5585;52.530;7.320;2023-03-23T07:48:06;3.93;;;1.53;;
11064;SDS011;5585;52.530;7.320;2023-03-23T07:50:32;4.33;;;1.13;;
11064;SDS011;5585;52.530;7.320;2023-03-23T07:53:01;5.73;;;1.17;;
11064;SDS011;5585;52.530;7.320;2023-03-23T07:55:27;5.37;;;1.70;;
11064;SDS011;5585;52.530;7.320;2023-03-23T07:57:54;3.20;;;1.50;;
11064;SDS011;5585;52.530;7.320;2023-03-23T08:00:23;4.23;;;1.27;;
11064;SDS011;5585;52.530;7.320;2023-03-23T08:02:50;3.90;;;1.80;;
11064;SDS011;5585;52.530;7.320;2023-03-23T08:05:17;4.37;;;1.40;;
11064;SDS011;5585;52.530;7.320;2023-03-23T08:07:44;5.73;;;1.80;;
11064;SDS011;5585;52.530;7.320;2023-03-23T08:10:11;5.43;;;1.50;;
11064;SDS011;5585;52.530;7.320;2023-03-23T08:12:39;4.70;;;1.20;;
11064;SDS011;5585;52.530;7.320;2023-03-23T08:15:06;4.23;;;1.00;;
11064;SDS011;5585;52.530;7.320;2023-03-23T08:17:34;3.33;;;1.20;;
11064;SDS011;5585;52.530;7.320;2023-03-23T08:20:01;4.50;;;1.90;;
11064;SDS011;5585;52.530;7.320;2023-03-23T08:22:37;4.13;;;2.20;;
11064;SDS011;5585;52.530;7.320;2023-03-23T08:25:04;2.83;;;1.33;;
11064;SDS011;5585;52.530;7.320;2023-03-23T08:27:31;5.10;;;2.00;;
11064;SDS011;5585;52.530;7.320;2023-03-23T08:29:58;4.07;;;1.73;;
11064;SDS011;5585;52.530;7.320;2023-03-23T08:32:24;3.37;;;1.20;;
11064;SDS011;5585;52.530;7.320;2023-03-23T08:34:52;3.70;;;1.23;;
11064;SDS011;5585;52.530;7.320;2023-03-23T08:37:19;1.87;;;1.00;;
11064;SDS011;5585;52.530;7.320;2023-03-23T08:39:46;2.93;;;1.10;;
11064;SDS011;5585;52.530;7.320;2023-03-23T08:42:12;3.37;;;1.20;;
11064;SDS011;5585;52.530;7.320;2023-03-23T08:44:39;3.47;;;1.10;;
11064;SDS011;5585;52.530;7.320;2023-03-23T08:47:06;4.20;;;1.03;;
11064;SDS011;5585;52.530;7.320;2023-03-23T08:49:33;4.07;;;1.47;;
11064;SDS011;5585;52.530;7.320;2023-03-23T08:52:01;5.53;;;1.10;;
11064;SDS011;5585;52.530;7.320;2023-03-23T08:54:28;5.03;;;1.23;;
11064;SDS011;5585;52.530;7.320;2023-03-23T08:56:58;3.07;;;1.03;;
11064;SDS011;5585;52.530;7.320;2023-03-23T08:59:25;4.80;;;1.73;;
11064;SDS011;5585;52.530;7.320;2023-03-23T09:01:52;3.93;;;1.53;;
11064;SDS011;5585;52.530;7.320;2023-03-23T09:04:18;2.33;;;1.77;;
11064;SDS011;5585;52.530;7.320;2023-03-23T09:06:46;3.00;;;1.70;;
11064;SDS011;5585;52.530;7.320;2023-03-23T09:09:13;5.57;;;1.60;;
11064;SDS011;5585;52.530;7.320;2023-03-23T09:11:40;2.50;;;1.30;;
11064;SDS011;5585;52.530;7.320;2023-03-23T09:14:07;1.60;;;1.10;;
11064;SDS011;5585;52.530;7.320;2023-03-23T09:16:34;3.57;;;1.70;;
11064;SDS011;5585;52.530;7.320;2023-03-23T09:19:00;2.70;;;1.40;;
11064;SDS011;5585;52.530;7.320;2023-03-23T09:21:27;3.40;;;1.30;;
11064;SDS011;5585;52.530;7.320;2023-03-23T09:23:54;4.10;;;1.60;;
11064;SDS011;5585;52.530;7.320;2023-03-23T09:26:24;3.17;;;1.40;;
11064;SDS011;5585;52.530;7.320;2023-03-23T09:28:51;3.90;;;1.60;;
11064;SDS011;5585;52.530;7.320;2023-03-23T09:31:18;3.73;;;1.43;;
11064;SDS011;5585;52.530;7.320;2023-03-23T09:33:45;4.23;;;1.70;;
11064;SDS011;5585;52.530;7.320;2023-03-23T09:36:12;6.07;;;1.90;;
11064;SDS011;5585;52.530;7.320;2023-03-23T09:38:41;5.57;;;1.80;;
11064;SDS011;5585;52.530;7.320;2023-03-23T09:41:12;2.30;;;1.70;;
11064;SDS011;5585;52.530;7.320;2023-03-23T09:43:46;3.63;;;1.70;;
11064;SDS011;5585;52.530;7.320;2023-03-23T09:46:20;3.03;;;1.50;;
11064;SDS011;5585;52.530;7.320;2023-03-23T09:48:49;3.30;;;1.37;;
11064;SDS011;5585;52.530;7.320;2023-03-23T09:51:21;3.17;;;1.70;;
11064;SDS011;5585;52.530;7.320;2023-03-23T09:53:51;4.93;;;1.80;;
11064;SDS011;5585;52.530;7.320;2023-03-23T09:56:19;3.47;;;1.97;;
11064;SDS011;5585;52.530;7.320;2023-03-23T09:58:58;4.43;;;2.00;;
11064;SDS011;5585;52.530;7.320;2023-03-23T10:01:26;5.43;;;1.97;;
11064;SDS011;5585;52.530;7.320;2023-03-23T10:03:57;5.33;;;2.03;;
11064;SDS011;5585;52.530;7.320;2023-03-23T10:06:24;4.33;;;1.77;;
11064;SDS011;5585;52.530;7.320;2023-03-23T10:08:51;2.90;;;1.87;;
11064;SDS011;5585;52.530;7.320;2023-03-23T10:11:30;2.60;;;1.67;;
11064;SDS011;5585;52.530;7.320;2023-03-23T10:14:04;4.13;;;1.70;;
11064;SDS011;5585;52.530;7.320;2023-03-23T10:16:34;5.63;;;1.87;;
11064;SDS011;5585;52.530;7.320;2023-03-23T10:19:03;3.13;;;1.53;;
11064;SDS011;5585;52.530;7.320;2023-03-23T10:21:34;3.93;;;1.70;;
11064;SDS011;5585;52.530;7.320;2023-03-23T10:24:02;2.70;;;1.60;;
11064;SDS011;5585;52.530;7.320;2023-03-23T10:26:33;6.80;;;1.90;;
11064;SDS011;5585;52.530;7.320;2023-03-23T10:29:11;3.03;;;1.30;;
11064;SDS011;5585;52.530;7.320;2023-03-23T10:31:39;2.73;;;1.57;;
11064;SDS011;5585;52.530;7.320;2023-03-23T10:34:09;5.27;;;1.43;;
11064;SDS011;5585;52.530;7.320;2023-03-23T10:36:37;3.90;;;1.50;;
11064;SDS011;5585;52.530;7.320;2023-03-23T10:39:06;2.63;;;1.33;;
11064;SDS011;5585;52.530;7.320;2023-03-23T10:41:36;3.03;;;1.30;;
11064;SDS011;5585;52.530;7.320;2023-03-23T10:44:08;2.17;;;1.20;;
11064;SDS011;5585;52.530;7.320;2023-03-23T10:46:38;3.67;;;1.27;;
11064;SDS011;5585;52.530;7.320;2023-03-23T10:49:08;1.87;;;1.10;;
11064;SDS011;5585;52.530;7.320;2023-03-23T10:51:37;2.27;;;1.30;;
11064;SDS011;5585;52.530;7.320;2023-03-23T10:54:04;2.87;;;1.30;;
11064;SDS011;5585;52.530;7.320;2023-03-23T10:56:34;3.30;;;1.47;;
11064;SDS011;5585;52.530;7.320;2023-03-23T10:59:12;4.33;;;1.20;;
11064;SDS011;5585;52.530;7.320;2023-03-23T11:01:41;3.00;;;1.17;;
11064;SDS011;5585;52.530;7.320;2023-03-23T11:04:10;2.33;;;1.10;;
11064;SDS011;5585;52.530;7.320;2023-03-23T11:06:38;2.80;;;1.10;;
11064;SDS011;5585;52.530;7.320;2023-03-23T11:09:10;2.92;;;1.42;;
11064;SDS011;5585;52.530;7.320;2023-03-23T11:11:38;3.37;;;1.43;;
11064;SDS011;5585;52.530;7.320;2023-03-23T11:14:14;4.20;;;1.38;;
11064;SDS011;5585;52.530;7.320;2023-03-23T11:16:43;2.38;;;1.10;;
11064;SDS011;5585;52.530;7.320;2023-03-23T11:19:13;3.47;;;1.60;;
11064;SDS011;5585;52.530;7.320;2023-03-23T11:21:40;2.42;;;1.23;;
11064;SDS011;5585;52.530;7.320;2023-03-23T11:24:12;3.53;;;1.17;;
11064;SDS011;5585;52.530;7.320;2023-03-23T11:26:39;3.67;;;1.30;;
11064;SDS011;5585;52.530;7.320;2023-03-23T11:29:10;3.20;;;1.40;;
11064;SDS011;5585;52.530;7.320;2023-03-23T11:31:40;2.38;;;1.20;;
11064;SDS011;5585;52.530;7.320;2023-03-23T11:34:09;2.10;;;1.17;;
11064;SDS011;5585;52.530;7.320;2023-03-23T11:36:37;3.22;;;1.30;;
11064;SDS011;5585;52.530;7.320;2023-03-23T11:39:18;3.80;;;1.40;;
11064;SDS011;5585;52.530;7.320;2023-03-23T11:41:45;4.45;;;1.30;;
11064;SDS011;5585;52.530;7.320;2023-03-23T11:44:11;3.55;;;1.40;;
11064;SDS011;5585;52.530;7.320;2023-03-23T11:46:42;2.83;;;1.10;;
11064;SDS011;5585;52.530;7.320;2023-03-23T11:49:12;4.00;;;1.38;;
11064;SDS011;5585;52.530;7.320;2023-03-23T11:51:42;4.75;;;1.33;;
11064;SDS011;5585;52.530;7.320;2023-03-23T11:54:12;5.47;;;1.45;;
11064;SDS011;5585;52.530;7.320;2023-03-23T11:56:42;3.67;;;1.45;;
11064;SDS011;5585;52.530;7.320;2023-03-23T11:59:09;3.22;;;1.15;;
11064;SDS011;5585;52.530;7.320;2023-03-23T12:01:49;4.85;;;1.52;;
11064;SDS011;5585;52.530;7.320;2023-03-23T12:07:02;3.72;;;1.35;;
11064;SDS011;5585;52.530;7.320;2023-03-23T12:09:36;3.72;;;1.15;;
11064;SDS011;5585;52.530;7.320;2023-03-23T12:12:09;4.50;;;1.60;;
11064;SDS011;5585;52.530;7.320;2023-03-23T12:14:39;3.78;;;1.10;;
11064;SDS011;5585;52.530;7.320;2023-03-23T12:17:14;4.85;;;1.40;;
11064;SDS011;5585;52.530;7.320;2023-03-23T12:19:44;2.40;;;1.10;;
11064;SDS011;5585;52.530;7.320;2023-03-23T12:22:16;4.63;;;1.60;;
11064;SDS011;5585;52.530;7.320;2023-03-23T12:24:56;5.65;;;1.95;;
11064;SDS011;5585;52.530;7.320;2023-03-23T12:27:26;4.80;;;1.25;;
11064;SDS011;5585;52.530;7.320;2023-03-23T12:30:07;4.00;;;1.23;;
11064;SDS011;5585;52.530;7.320;2023-03-23T12:32:42;5.20;;;1.48;;
11064;SDS011;5585;52.530;7.320;2023-03-23T12:35:14;3.03;;;1.38;;
11064;SDS011;5585;52.530;7.320;2023-03-23T12:37:46;3.92;;;1.55;;
11064;SDS011;5585;52.530;7.320;2023-03-23T12:40:19;3.50;;;1.33;;
11064;SDS011;5585;52.530;7.320;2023-03-23T12:42:52;4.05;;;1.13;;
11064;SDS011;5585;52.530;7.320;2023-03-23T12:45:24;3.83;;;1.10;;
11064;SDS011;5585;52.530;7.320;2023-03-23T12:47:57;4.13;;;1.25;;
11064;SDS011;5585;52.530;7.320;2023-03-23T12:50:28;5.72;;;1.55;;
11064;SDS011;5585;52.530;7.320;2023-03-23T12:52:56;3.60;;;1.02;;
11064;SDS011;5585;52.530;7.320;2023-03-23T12:55:27;4.20;;;1.17;;
11064;SDS011;5585;52.530;7.320;2023-03-23T12:57:54;6.90;;;1.60;;
11064;SDS011;5585;52.530;7.320;2023-03-23T13:00:25;3.78;;;1.20;;
11064;SDS011;5585;52.530;7.320;2023-03-23T13:02:54;3.88;;;1.20;;
11064;SDS011;5585;52.530;7.320;2023-03-23T13:05:28;4.97;;;1.30;;
11064;SDS011;5585;52.530;7.320;2023-03-23T13:07:59;6.72;;;1.50;;
11064;SDS011;5585;52.530;7.320;2023-03-23T13:10:28;3.60;;;1.20;;
11064;SDS011;5585;52.530;7.320;2023-03-23T13:12:55;4.47;;;1.30;;
11064;SDS011;5585;52.530;7.320;2023-03-23T13:15:25;6.28;;;1.70;;
11064;SDS011;5585;52.530;7.320;2023-03-23T13:17:54;3.30;;;1.35;;
11064;SDS011;5585;52.530;7.320;2023-03-23T13:20:35;2.25;;;0.85;;
11064;SDS011;5585;52.530;7.320;2023-03-23T13:23:05;4.78;;;1.50;;
11064;SDS011;5585;52.530;7.320;2023-03-23T13:25:40;3.30;;;1.30;;
11064;SDS011;5585;52.530;7.320;2023-03-23T13:28:12;4.47;;;1.40;;
11064;SDS011;5585;52.530;7.320;2023-03-23T13:30:40;5.53;;;1.10;;
11064;SDS011;5585;52.530;7.320;2023-03-23T13:33:10;4.72;;;1.63;;
11064;SDS011;5585;52.530;7.320;2023-03-23T13:35:40;3.35;;;1.20;;
11064;SDS011;5585;52.530;7.320;2023-03-23T13:38:12;4.80;;;1.42;;
11064;SDS011;5585;52.530;7.320;2023-03-23T13:40:41;3.88;;;1.08;;
11064;SDS011;5585;52.530;7.320;2023-03-23T13:43:08;5.45;;;1.15;;
11064;SDS011;5585;52.530;7.320;2023-03-23T13:45:36;2.72;;;1.00;;
11064;SDS011;5585;52.530;7.320;2023-03-23T13:48:03;4.35;;;1.40;;
11064;SDS011;5585;52.530;7.320;2023-03-23T13:50:31;5.40;;;1.35;;
11064;SDS011;5585;52.530;7.320;2023-03-23T13:52:59;4.00;;;0.90;;
11064;SDS011;5585;52.530;7.320;2023-03-23T13:55:36;6.00;;;1.00;;
11064;SDS011;5585;52.530;7.320;2023-03-23T13:58:09;2.97;;;0.88;;
11064;SDS011;5585;52.530;7.320;2023-03-23T14:00:44;3.13;;;0.98;;
11064;SDS011;5585;52.530;7.320;2023-03-23T14:03:12;5.20;;;1.20;;
11064;SDS011;5585;52.530;7.320;2023-03-23T14:05:39;3.45;;;1.15;;
11064;SDS011;5585;52.530;7.320;2023-03-23T14:08:20;3.65;;;1.10;;
11064;SDS011;5585;52.530;7.320;2023-03-23T14:10:49;4.90;;;1.20;;
11064;SDS011;5585;52.530;7.320;2023-03-23T14:13:24;3.03;;;0.80;;
11064;SDS011;5585;52.530;7.320;2023-03-23T14:15:55;3.50;;;0.80;;
11064;SDS011;5585;52.530;7.320;2023-03-23T14:18:23;4.38;;;0.77;;
11064;SDS011;5585;52.530;7.320;2023-03-23T14:20:51;4.53;;;1.33;;
11064;SDS011;5585;52.530;7.320;2023-03-23T14:23:19;4.53;;;0.88;;
11064;SDS011;5585;52.530;7.320;2023-03-23T14:25:54;1.83;;;0.60;;
11064;SDS011;5585;52.530;7.320;2023-03-23T14:28:21;1.27;;;0.60;;
11064;SDS011;5585;52.530;7.320;2023-03-23T14:30:48;2.53;;;0.70;;
11064;SDS011;5585;52.530;7.320;2023-03-23T14:33:18;2.20;;;0.60;;
11064;SDS011;5585;52.530;7.320;2023-03-23T14:35:45;1.23;;;0.50;;
11064;SDS011;5585;52.530;7.320;2023-03-23T14:38:14;1.90;;;0.80;;
11064;SDS011;5585;52.530;7.320;2023-03-23T14:40:42;1.23;;;0.50;;
11064;SDS011;5585;52.530;7.320;2023-03-23T14:43:09;1.57;;;0.53;;
11064;SDS011;5585;52.530;7.320;2023-03-23T14:45:37;1.70;;;0.70;;
11064;SDS011;5585;52.530;7.320;2023-03-23T14:48:04;2.20;;;0.70;;
11064;SDS011;5585;52.530;7.320;2023-03-23T14:50:36;2.63;;;0.82;;
11064;SDS011;5585;52.530;7.320;2023-03-23T14:53:09;1.10;;;0.70;;
11064;SDS011;5585;52.530;7.320;2023-03-23T14:55:36;1.53;;;0.70;;
11064;SDS011;5585;52.530;7.320;2023-03-23T14:58:08;3.27;;;0.93;;
11064;SDS011;5585;52.530;7.320;2023-03-23T15:00:35;2.53;;;1.10;;
11064;SDS011;5585;52.530;7.320;2023-03-23T15:03:03;2.17;;;1.20;;
11064;SDS011;5585;52.530;7.320;2023-03-23T15:05:31;3.55;;;1.30;;
11064;SDS011;5585;52.530;7.320;2023-03-23T15:07:59;2.65;;;1.00;;
11064;SDS011;5585;52.530;7.320;2023-03-23T15:10:27;3.93;;;1.10;;
11064;SDS011;5585;52.530;7.320;2023-03-23T15:12:54;2.47;;;0.90;;
11064;SDS011;5585;52.530;7.320;2023-03-23T15:15:26;2.53;;;0.70;;
11064;SDS011;5585;52.530;7.320;2023-03-23T15:17:53;5.05;;;1.35;;
11064;SDS011;5585;52.530;7.320;2023-03-23T15:20:21;3.38;;;2.15;;